createdAt,value
2018-05-17T00:01:49.848Z,9.63
2018-05-17T00:04:18.071Z,8.83
2018-05-17T00:06:45.530Z,10.10
2018-05-17T00:09:13.013Z,10.07
2018-05-17T00:11:40.559Z,10.00
2018-05-17T00:14:08.134Z,9.97
2018-05-17T00:16:35.615Z,10.33
2018-05-17T00:19:03.155Z,9.73
2018-05-17T00:21:31.384Z,10.20
2018-05-17T00:23:58.843Z,9.20
2018-05-17T00:26:26.329Z,10.50
2018-05-17T00:28:53.880Z,10.10
2018-05-17T00:31:21.357Z,9.80
2018-05-17T00:33:48.840Z,9.53
2018-05-17T00:36:16.336Z,9.80
2018-05-17T00:38:43.812Z,9.90
2018-05-17T00:41:11.278Z,10.00
2018-05-17T00:43:38.752Z,9.83
2018-05-17T00:46:06.978Z,9.67
2018-05-17T00:48:34.468Z,10.70
2018-05-17T00:51:03.458Z,10.50
2018-05-17T00:53:31.621Z,10.73
2018-05-17T00:55:59.191Z,9.73
2018-05-17T00:58:26.650Z,10.70
2018-05-17T01:00:54.922Z,9.30
2018-05-17T01:03:22.484Z,9.87
2018-05-17T01:05:49.956Z,9.73
2018-05-17T01:08:18.198Z,9.50
2018-05-17T01:10:45.720Z,10.77
2018-05-17T01:13:13.247Z,9.40
2018-05-17T01:15:42.191Z,8.47
2018-05-17T01:18:09.661Z,10.10
2018-05-17T01:20:37.241Z,9.37
2018-05-17T01:23:04.792Z,8.87
2018-05-17T01:25:32.356Z,9.27
2018-05-17T01:27:59.828Z,9.40
2018-05-17T01:30:28.052Z,8.83
2018-05-17T01:32:55.696Z,10.23
2018-05-17T01:35:23.207Z,9.80
2018-05-17T01:38:03.287Z,10.00
2018-05-17T01:40:30.754Z,9.30
2018-05-17T01:42:58.227Z,10.30
2018-05-17T01:45:25.691Z,9.00
2018-05-17T01:47:53.154Z,9.83
2018-05-17T01:50:20.634Z,8.80
2018-05-17T01:52:48.101Z,8.30
2018-05-17T01:55:15.586Z,9.90
2018-05-17T01:57:43.054Z,10.57
2018-05-17T02:00:10.604Z,9.60
2018-05-17T02:02:38.010Z,9.80
2018-05-17T02:05:05.482Z,9.43
2018-05-17T02:07:33.740Z,9.33
2018-05-17T02:10:01.224Z,10.40
2018-05-17T02:12:29.508Z,10.33
2018-05-17T02:14:57.746Z,10.60
2018-05-17T02:17:25.323Z,10.93
2018-05-17T02:19:52.786Z,10.80
2018-05-17T02:22:21.038Z,10.00
2018-05-17T02:24:48.620Z,10.53
2018-05-17T02:27:16.881Z,10.50
2018-05-17T02:29:45.242Z,11.63
2018-05-17T02:32:12.724Z,10.63
2018-05-17T02:34:40.207Z,10.93
2018-05-17T02:37:08.439Z,11.30
2018-05-17T02:39:36.055Z,11.70
2018-05-17T02:42:03.577Z,12.17
2018-05-17T02:44:31.070Z,12.90
2018-05-17T02:46:58.538Z,13.37
2018-05-17T02:49:26.002Z,12.23
2018-05-17T02:51:53.466Z,11.80
2018-05-17T02:54:20.942Z,12.50
2018-05-17T02:56:48.503Z,12.80
2018-05-17T02:59:16.079Z,14.07
2018-05-17T03:01:43.553Z,13.20
2018-05-17T03:04:11.796Z,13.67
2018-05-17T03:06:39.380Z,12.83
2018-05-17T03:09:07.645Z,12.73
2018-05-17T03:11:35.132Z,12.63
2018-05-17T03:14:02.665Z,13.73
2018-05-17T03:16:30.947Z,13.20
2018-05-17T03:18:59.201Z,14.00
2018-05-17T03:21:26.823Z,13.40
2018-05-17T03:23:54.320Z,13.33
2018-05-17T03:26:22.590Z,13.40
2018-05-17T03:28:50.061Z,13.60
2018-05-17T03:31:17.625Z,14.03
2018-05-17T03:33:45.899Z,13.60
2018-05-17T03:36:13.456Z,14.27
2018-05-17T03:38:40.957Z,15.13
2018-05-17T03:41:08.419Z,15.53
2018-05-17T03:43:35.932Z,15.20
2018-05-17T03:46:03.420Z,17.07
2018-05-17T03:48:30.917Z,17.00
2018-05-17T03:50:58.418Z,15.27
2018-05-17T03:53:26.684Z,16.43
2018-05-17T03:55:54.936Z,15.20
2018-05-17T03:58:22.424Z,17.37
2018-05-17T04:01:02.675Z,16.07
2018-05-17T04:03:43.001Z,14.57
2018-05-17T04:06:22.618Z,16.67
2018-05-17T04:08:50.120Z,16.37
2018-05-17T04:11:18.355Z,16.30
2018-05-17T04:13:45.809Z,16.17
2018-05-17T04:16:13.278Z,14.63
2018-05-17T04:18:40.784Z,15.93
2018-05-17T04:21:09.052Z,15.07
2018-05-17T04:23:37.314Z,15.33
2018-05-17T04:26:04.889Z,15.10
2018-05-17T04:28:33.112Z,16.47
2018-05-17T04:31:00.587Z,15.30
2018-05-17T04:33:28.053Z,14.80
2018-05-17T04:35:55.536Z,15.10
2018-05-17T04:38:23.887Z,13.90
2018-05-17T04:40:51.474Z,14.20
2018-05-17T04:43:19.736Z,13.63
2018-05-17T04:45:47.228Z,14.93
2018-05-17T04:48:14.768Z,14.80
2018-05-17T04:50:43.014Z,14.53
2018-05-17T04:53:10.501Z,14.97
2018-05-17T04:55:38.744Z,14.87
2018-05-17T04:58:06.219Z,14.90
2018-05-17T05:00:34.464Z,13.90
2018-05-17T05:03:02.055Z,14.37
2018-05-17T05:05:29.422Z,13.23
2018-05-17T05:07:57.686Z,13.67
2018-05-17T05:10:25.966Z,13.07
2018-05-17T05:12:54.207Z,14.10
2018-05-17T05:15:21.777Z,13.33
2018-05-17T05:17:49.268Z,13.20
2018-05-17T05:20:16.799Z,14.67
2018-05-17T05:22:44.350Z,13.60
2018-05-17T05:25:11.947Z,14.47
2018-05-17T05:27:39.376Z,13.47
2018-05-17T05:30:06.945Z,13.57
2018-05-17T05:32:35.178Z,13.40
2018-05-17T05:35:02.664Z,13.37
2018-05-17T05:37:30.205Z,13.33
2018-05-17T05:39:58.380Z,12.80
2018-05-17T05:42:25.849Z,12.90
2018-05-17T05:44:53.344Z,11.33
2018-05-17T05:47:20.864Z,12.80
2018-05-17T05:49:48.369Z,12.93
2018-05-17T05:52:15.883Z,12.43
2018-05-17T05:54:43.365Z,12.63
2018-05-17T05:57:11.714Z,11.40
2018-05-17T05:59:39.186Z,13.07
2018-05-17T06:02:07.448Z,12.60
2018-05-17T06:04:34.941Z,11.13
2018-05-17T06:07:02.416Z,12.13
2018-05-17T06:09:29.897Z,12.67
2018-05-17T06:11:57.379Z,12.80
2018-05-17T06:14:24.854Z,12.60
2018-05-17T06:16:53.124Z,12.60
2018-05-17T06:19:20.593Z,11.40
2018-05-17T06:21:48.838Z,12.40
2018-05-17T06:24:16.404Z,12.83
2018-05-17T06:26:44.645Z,12.57
2018-05-17T06:29:12.132Z,11.20
2018-05-17T06:31:39.701Z,13.00
2018-05-17T06:34:07.204Z,12.70
2018-05-17T06:36:34.725Z,12.40
2018-05-17T06:39:02.974Z,12.33
2018-05-17T06:41:30.538Z,12.17
2018-05-17T06:43:58.080Z,12.00
2018-05-17T06:46:26.252Z,11.80
2018-05-17T06:48:53.728Z,11.80
2018-05-17T06:51:21.211Z,10.90
2018-05-17T06:53:49.461Z,13.20
2018-05-17T06:56:16.918Z,12.73
2018-05-17T06:58:45.920Z,12.30
2018-05-17T07:01:14.970Z,10.83
2018-05-17T07:03:43.157Z,11.73
2018-05-17T07:06:10.622Z,11.07
2018-05-17T07:08:38.196Z,10.60
2018-05-17T07:11:05.761Z,10.80
2018-05-17T07:13:33.236Z,10.63
2018-05-17T07:16:01.469Z,11.77
2018-05-17T07:18:28.990Z,10.53
2018-05-17T07:20:56.423Z,11.70
2018-05-17T07:23:24.684Z,10.63
2018-05-17T07:25:52.234Z,11.93
2018-05-17T07:28:21.235Z,10.30
2018-05-17T07:30:48.808Z,10.67
2018-05-17T07:33:17.062Z,10.27
2018-05-17T07:35:44.570Z,9.93
2018-05-17T07:38:12.077Z,11.27
2018-05-17T07:40:39.557Z,10.10
2018-05-17T07:43:07.790Z,11.87
2018-05-17T07:45:35.381Z,10.73
2018-05-17T07:48:02.922Z,8.90
2018-05-17T07:50:31.166Z,8.97
2018-05-17T07:52:59.522Z,10.37
2018-05-17T07:55:26.988Z,10.00
2018-05-17T07:57:54.452Z,9.50
2018-05-17T08:00:22.045Z,9.17
2018-05-17T08:02:49.533Z,9.30
2018-05-17T08:05:17.784Z,9.07
2018-05-17T08:07:45.242Z,8.20
2018-05-17T08:10:12.728Z,8.50
2018-05-17T08:12:40.946Z,8.90
2018-05-17T08:15:08.424Z,8.17
2018-05-17T08:17:35.894Z,8.60
2018-05-17T08:20:03.374Z,7.90
2018-05-17T08:22:30.852Z,7.77
2018-05-17T08:24:58.368Z,7.90
2018-05-17T08:27:25.841Z,8.90
2018-05-17T08:29:54.083Z,7.40
2018-05-17T08:32:22.311Z,7.23
2018-05-17T08:34:49.777Z,10.00
2018-05-17T08:37:17.229Z,8.40
2018-05-17T08:39:44.752Z,7.40
2018-05-17T08:42:12.997Z,7.90
2018-05-17T08:44:40.510Z,8.40
2018-05-17T08:47:07.987Z,7.20
2018-05-17T08:49:35.515Z,7.47
2018-05-17T08:52:03.728Z,7.47
2018-05-17T08:54:31.214Z,7.03
2018-05-17T08:56:58.677Z,7.00
2018-05-17T08:59:26.238Z,6.70
2018-05-17T09:01:54.511Z,7.10
2018-05-17T09:04:21.980Z,7.43
2018-05-17T09:06:50.217Z,7.77
2018-05-17T09:09:17.708Z,6.70
2018-05-17T09:11:45.178Z,7.63
2018-05-17T09:14:13.440Z,7.10
2018-05-17T09:16:41.757Z,7.83
2018-05-17T09:19:09.230Z,7.53
2018-05-17T09:21:36.696Z,7.77
2018-05-17T09:24:04.212Z,7.07
2018-05-17T09:26:31.740Z,8.27
2018-05-17T09:28:59.206Z,8.13
2018-05-17T09:31:27.478Z,7.53
2018-05-17T09:33:55.711Z,7.33
2018-05-17T09:36:23.213Z,8.60
2018-05-17T09:38:51.527Z,8.83
2018-05-17T09:41:19.128Z,6.77
2018-05-17T09:43:47.268Z,7.73
2018-05-17T09:46:14.736Z,6.40
2018-05-17T09:48:42.232Z,7.43
2018-05-17T09:51:10.506Z,6.90
2018-05-17T09:53:38.740Z,6.60
2018-05-17T09:56:06.227Z,7.50
2018-05-17T09:58:33.717Z,7.17
2018-05-17T10:01:01.973Z,7.63
2018-05-17T10:03:30.205Z,5.83
2018-05-17T10:05:57.708Z,8.30
2018-05-17T10:08:25.984Z,8.10
2018-05-17T10:10:54.275Z,7.30
2018-05-17T10:13:22.523Z,7.73
2018-05-17T10:15:50.113Z,7.47
2018-05-17T10:18:17.647Z,7.60
2018-05-17T10:20:45.918Z,7.40
2018-05-17T10:23:14.147Z,7.90
2018-05-17T10:25:42.601Z,7.90
2018-05-17T10:28:10.091Z,8.13
2018-05-17T10:30:37.590Z,8.37
2018-05-17T10:33:05.131Z,8.97
2018-05-17T10:35:32.599Z,8.77
2018-05-17T10:38:00.079Z,8.23
2018-05-17T10:40:28.302Z,9.63
2018-05-17T10:42:55.812Z,8.63
2018-05-17T10:45:24.444Z,7.43
2018-05-17T10:47:51.933Z,8.63
2018-05-17T10:50:19.394Z,8.23
2018-05-17T10:52:47.648Z,8.57
2018-05-17T10:55:15.879Z,8.87
2018-05-17T10:57:43.356Z,8.70
2018-05-17T11:00:10.897Z,8.03
2018-05-17T11:02:38.376Z,8.50
2018-05-17T11:05:05.823Z,8.57
2018-05-17T11:07:33.278Z,9.27
2018-05-17T11:10:00.760Z,9.10
2018-05-17T11:12:28.228Z,9.53
2018-05-17T11:14:55.704Z,9.10
2018-05-17T11:17:23.935Z,7.40
2018-05-17T11:19:51.404Z,7.90
2018-05-17T11:22:18.895Z,8.67
2018-05-17T11:24:47.122Z,8.07
2018-05-17T11:27:14.615Z,8.13
2018-05-17T11:29:42.098Z,8.67
2018-05-17T11:32:10.337Z,8.07
2018-05-17T11:34:39.302Z,7.97
2018-05-17T11:37:06.792Z,8.50
2018-05-17T11:39:34.362Z,8.60
2018-05-17T11:42:01.916Z,8.17
2018-05-17T11:44:30.894Z,7.53
2018-05-17T11:46:58.366Z,7.97
2018-05-17T11:49:25.831Z,7.43
2018-05-17T11:51:54.060Z,8.37
2018-05-17T11:54:21.526Z,7.00
2018-05-17T11:56:48.992Z,7.30
2018-05-17T11:59:16.468Z,8.37
2018-05-17T12:01:43.951Z,7.00
2018-05-17T12:04:11.480Z,7.20
2018-05-17T12:06:38.942Z,7.10
2018-05-17T12:09:06.483Z,7.37
2018-05-17T12:11:34.035Z,7.10
2018-05-17T12:14:01.517Z,7.37
2018-05-17T12:16:28.984Z,6.47
2018-05-17T12:18:57.233Z,6.50
2018-05-17T12:21:24.705Z,6.83
2018-05-17T12:23:52.182Z,6.57
2018-05-17T12:26:19.661Z,6.60
2018-05-17T12:28:47.133Z,6.77
2018-05-17T12:31:14.585Z,5.93
2018-05-17T12:33:42.077Z,7.17
2018-05-17T12:36:09.586Z,6.50
2018-05-17T12:38:37.093Z,6.50
2018-05-17T12:41:04.568Z,6.50
2018-05-17T12:43:32.838Z,7.30
2018-05-17T12:46:00.374Z,6.20
2018-05-17T12:48:27.884Z,6.00
2018-05-17T12:50:55.373Z,6.83
2018-05-17T12:53:22.826Z,6.30
2018-05-17T12:55:50.290Z,6.03
2018-05-17T12:58:17.750Z,7.40
2018-05-17T13:00:45.329Z,5.90
2018-05-17T13:03:12.877Z,5.53
2018-05-17T13:05:40.451Z,5.30
2018-05-17T13:08:07.917Z,6.13
2018-05-17T13:10:36.139Z,6.37
2018-05-17T13:13:03.701Z,5.67
2018-05-17T13:15:31.187Z,6.03
2018-05-17T13:17:58.647Z,6.77
2018-05-17T13:20:26.194Z,5.90
2018-05-17T13:22:53.691Z,5.67
2018-05-17T13:25:21.934Z,5.53
2018-05-17T13:27:49.400Z,6.20
2018-05-17T13:30:17.038Z,5.77
2018-05-17T13:32:45.201Z,5.87
2018-05-17T13:35:12.667Z,5.33
2018-05-17T13:37:40.127Z,5.50
2018-05-17T13:40:07.605Z,6.07
2018-05-17T13:42:35.839Z,5.90
2018-05-17T13:45:03.354Z,5.77
2018-05-17T13:47:31.582Z,5.57
2018-05-17T13:49:59.051Z,6.37
2018-05-17T13:52:26.513Z,5.00
2018-05-17T13:54:53.988Z,6.67
2018-05-17T13:57:21.455Z,5.17
2018-05-17T13:59:49.694Z,5.03
2018-05-17T14:02:17.226Z,5.43
2018-05-17T14:04:45.497Z,5.23
2018-05-17T14:07:13.021Z,6.20
2018-05-17T14:09:41.405Z,4.07
2018-05-17T14:12:08.820Z,4.77
2018-05-17T14:14:36.282Z,5.23
2018-05-17T14:17:03.765Z,6.00
2018-05-17T14:19:32.000Z,4.03
2018-05-17T14:21:59.471Z,3.80
2018-05-17T14:24:26.936Z,5.17
2018-05-17T14:26:54.490Z,5.00
2018-05-17T14:29:21.961Z,4.43
2018-05-17T14:31:49.547Z,4.83
2018-05-17T14:34:17.022Z,5.07
2018-05-17T14:36:44.529Z,5.77
2018-05-17T14:39:12.080Z,4.93
2018-05-17T14:41:39.540Z,4.50
2018-05-17T14:44:07.100Z,4.40
2018-05-17T14:46:34.683Z,4.30
2018-05-17T14:49:02.912Z,4.87
2018-05-17T14:51:30.388Z,4.10
2018-05-17T14:53:57.854Z,4.70
2018-05-17T14:56:25.348Z,5.40
2018-05-17T14:58:52.920Z,4.63
2018-05-17T15:01:20.482Z,4.40
2018-05-17T15:03:47.881Z,4.10
2018-05-17T15:06:15.356Z,4.40
2018-05-17T15:08:43.683Z,4.80
2018-05-17T15:11:14.748Z,4.77
2018-05-17T15:13:39.332Z,4.37
2018-05-17T15:16:06.926Z,5.10
2018-05-17T15:18:35.202Z,4.47
2018-05-17T15:21:03.464Z,4.13
2018-05-17T15:23:30.949Z,5.13
2018-05-17T15:25:58.641Z,4.17
2018-05-17T15:28:26.123Z,4.80
2018-05-17T15:30:53.600Z,4.60
2018-05-17T15:33:21.072Z,4.87
2018-05-17T15:35:49.306Z,4.40
2018-05-17T15:38:16.767Z,4.80
2018-05-17T15:40:44.236Z,5.13
2018-05-17T15:43:11.730Z,5.43
2018-05-17T15:45:39.205Z,5.30
2018-05-17T15:48:06.726Z,4.80
2018-05-17T15:50:34.254Z,4.23
2018-05-17T15:53:01.739Z,4.47
2018-05-17T15:55:29.980Z,4.70
2018-05-17T15:57:57.549Z,3.63
2018-05-17T16:00:25.252Z,5.03
2018-05-17T16:02:52.757Z,5.40
2018-05-17T16:05:20.229Z,6.07
2018-05-17T16:07:47.791Z,4.83
2018-05-17T16:10:15.339Z,4.60
2018-05-17T16:12:42.799Z,5.73
2018-05-17T16:15:10.508Z,4.70
2018-05-17T16:17:38.628Z,5.70
2018-05-17T16:20:06.110Z,4.57
2018-05-17T16:22:34.362Z,4.57
2018-05-17T16:25:01.833Z,5.70
2018-05-17T16:27:29.308Z,5.20
2018-05-17T16:29:57.712Z,5.73
2018-05-17T16:32:25.250Z,5.80
2018-05-17T16:34:53.509Z,5.30
2018-05-17T16:37:21.061Z,5.97
2018-05-17T16:39:48.606Z,5.27
2018-05-17T16:42:16.172Z,5.43
2018-05-17T16:44:43.728Z,6.07
2018-05-17T16:47:11.196Z,7.07
2018-05-17T16:49:38.777Z,8.43
2018-05-17T16:52:07.026Z,7.27
2018-05-17T16:54:36.000Z,6.50
2018-05-17T16:57:03.450Z,5.40
2018-05-17T16:59:30.958Z,5.87
2018-05-17T17:01:59.197Z,5.83
2018-05-17T17:04:26.669Z,7.40
2018-05-17T17:06:55.064Z,5.83
2018-05-17T17:09:22.532Z,5.97
2018-05-17T17:11:50.008Z,5.97
2018-05-17T17:14:17.614Z,6.90
2018-05-17T17:16:45.181Z,6.53
2018-05-17T17:19:12.659Z,9.23
2018-05-17T17:21:40.904Z,6.13
2018-05-17T17:24:09.888Z,7.20
2018-05-17T17:26:37.368Z,7.10
2018-05-17T17:29:05.650Z,5.40
2018-05-17T17:31:33.894Z,6.10
2018-05-17T17:34:01.487Z,6.70
2018-05-17T17:36:29.816Z,6.10
2018-05-17T17:38:57.229Z,7.23
2018-05-17T17:41:24.710Z,7.67
2018-05-17T17:43:52.170Z,5.90
2018-05-17T17:46:19.634Z,7.50
2018-05-17T17:48:47.220Z,5.90
2018-05-17T17:51:15.395Z,5.70
2018-05-17T17:53:42.863Z,6.60
2018-05-17T17:56:10.318Z,5.47
2018-05-17T17:58:38.569Z,6.37
2018-05-17T18:01:06.147Z,5.83
2018-05-17T18:03:33.709Z,7.40
2018-05-17T18:06:01.191Z,6.03
2018-05-17T18:08:29.428Z,7.13
2018-05-17T18:10:56.894Z,7.37
2018-05-17T18:13:24.472Z,6.20
2018-05-17T18:15:52.640Z,6.10
2018-05-17T18:18:20.990Z,5.90
2018-05-17T18:20:48.461Z,5.80
2018-05-17T18:23:15.933Z,6.10
2018-05-17T18:25:44.154Z,6.00
2018-05-17T18:28:11.630Z,7.17
2018-05-17T18:30:39.094Z,7.10
2018-05-17T18:33:06.614Z,7.10
2018-05-17T18:35:34.112Z,6.87
2018-05-17T18:38:03.095Z,5.90
2018-05-17T18:40:30.662Z,5.10
2018-05-17T18:42:58.235Z,6.87
2018-05-17T18:45:25.705Z,5.43
2018-05-17T18:47:53.954Z,6.40
2018-05-17T18:50:21.513Z,5.30
2018-05-17T18:52:49.747Z,5.50
2018-05-17T18:55:22.914Z,5.47
2018-05-17T18:57:44.724Z,6.00
2018-05-17T19:00:13.007Z,6.40
2018-05-17T19:02:40.583Z,6.63
2018-05-17T19:05:08.007Z,5.90
2018-05-17T19:07:35.552Z,5.10
2018-05-17T19:12:38.554Z,6.03
2018-05-17T19:15:06.038Z,5.80
2018-05-17T19:17:34.266Z,5.33
2018-05-17T19:20:01.749Z,5.00
2018-05-17T19:22:29.209Z,6.03
2018-05-17T19:24:56.714Z,7.00
2018-05-17T19:27:24.203Z,6.93
2018-05-17T19:29:51.796Z,5.97
2018-05-17T19:32:20.041Z,5.90
2018-05-17T19:34:47.514Z,5.50
2018-05-17T19:37:15.060Z,5.10
2018-05-17T19:39:43.245Z,6.60
2018-05-17T19:42:10.805Z,6.33
2018-05-17T19:44:38.276Z,5.13
2018-05-17T19:47:06.521Z,5.70
2018-05-17T19:49:34.004Z,5.40
2018-05-17T19:52:01.473Z,5.80
2018-05-17T19:54:29.713Z,6.23
2018-05-17T19:56:57.175Z,6.10
2018-05-17T19:59:24.684Z,6.60
2018-05-17T20:01:52.910Z,5.87
2018-05-17T20:04:20.504Z,5.53
2018-05-17T20:06:48.050Z,6.50
2018-05-17T20:09:16.275Z,5.40
2018-05-17T20:11:43.815Z,6.60
2018-05-17T20:14:11.338Z,6.23
2018-05-17T20:16:39.574Z,6.77
2018-05-17T20:19:07.042Z,6.73
2018-05-17T20:21:36.017Z,6.67
2018-05-17T20:24:03.519Z,6.90
2018-05-17T20:26:31.774Z,7.30
2018-05-17T20:28:59.247Z,7.07
2018-05-17T20:31:27.562Z,6.57
2018-05-17T20:33:55.048Z,8.13
2018-05-17T20:36:22.500Z,7.90
2018-05-17T20:38:49.986Z,7.03
2018-05-17T20:41:17.442Z,7.57
2018-05-17T20:43:44.914Z,7.73
2018-05-17T20:46:13.178Z,6.60
2018-05-17T20:48:40.647Z,7.43
2018-05-17T20:51:08.916Z,7.03
2018-05-17T20:53:37.263Z,7.50
2018-05-17T20:56:04.733Z,6.40
2018-05-17T20:58:32.260Z,7.27
2018-05-17T21:00:59.732Z,6.73
2018-05-17T21:03:27.215Z,6.40
2018-05-17T21:05:55.488Z,7.20
2018-05-17T21:08:23.024Z,6.70
2018-05-17T21:10:50.488Z,7.10
2018-05-17T21:13:18.053Z,7.00
2018-05-17T21:15:45.550Z,5.90
2018-05-17T21:18:13.126Z,6.00
2018-05-17T21:20:40.623Z,6.30
2018-05-17T21:23:08.200Z,6.20
2018-05-17T21:25:35.761Z,6.90
2018-05-17T21:28:04.012Z,5.53
2018-05-17T21:30:31.497Z,6.33
2018-05-17T21:32:59.745Z,6.40
2018-05-17T21:35:28.725Z,5.30
2018-05-17T21:37:56.216Z,6.10
2018-05-17T21:40:23.776Z,7.83
2018-05-17T21:42:52.010Z,5.13
2018-05-17T21:45:19.608Z,6.00
2018-05-17T21:47:47.884Z,6.07
2018-05-17T21:50:15.431Z,6.57
2018-05-17T21:52:42.900Z,6.80
2018-05-17T21:55:11.146Z,6.80
2018-05-17T21:57:38.649Z,5.50
2018-05-17T22:00:06.909Z,7.20
2018-05-17T22:02:35.134Z,6.23
2018-05-17T22:05:02.617Z,6.37
2018-05-17T22:07:30.116Z,9.07
2018-05-17T22:09:58.419Z,6.83
2018-05-17T22:12:25.906Z,7.33
2018-05-17T22:14:53.371Z,7.23
2018-05-17T22:17:20.844Z,7.13
2018-05-17T22:19:48.307Z,7.90
2018-05-17T22:22:15.846Z,7.00
2018-05-17T22:24:43.406Z,7.67
2018-05-17T22:27:10.880Z,8.00
2018-05-17T22:29:39.117Z,7.07
2018-05-17T22:32:06.585Z,7.83
2018-05-17T22:34:34.160Z,7.40
2018-05-17T22:37:02.405Z,7.57
2018-05-17T22:39:29.876Z,6.83
2018-05-17T22:41:57.352Z,6.57
2018-05-17T22:44:25.618Z,7.67
2018-05-17T22:46:53.088Z,6.50
2018-05-17T22:49:22.089Z,7.40
2018-05-17T22:51:50.348Z,6.40
2018-05-17T22:54:17.812Z,7.50
2018-05-17T22:56:58.086Z,5.70
2018-05-17T22:59:26.339Z,7.10
2018-05-17T23:01:53.811Z,6.70
2018-05-17T23:04:22.087Z,7.83
2018-05-17T23:06:50.332Z,6.80
2018-05-17T23:09:17.854Z,7.40
2018-05-17T23:11:45.323Z,7.13
2018-05-17T23:14:12.824Z,7.13
2018-05-17T23:16:41.071Z,7.57
2018-05-17T23:19:08.546Z,6.60
2018-05-17T23:21:36.019Z,6.80
2018-05-17T23:24:04.280Z,7.20
2018-05-17T23:26:31.755Z,6.60
2018-05-17T23:29:00.011Z,7.47
2018-05-17T23:31:27.589Z,6.70
2018-05-17T23:33:55.852Z,6.23
2018-05-17T23:36:23.328Z,6.90
2018-05-17T23:38:50.848Z,6.80
2018-05-17T23:41:30.333Z,7.47
2018-05-17T23:43:57.869Z,6.57
2018-05-17T23:46:26.135Z,6.83
2018-05-17T23:48:53.600Z,7.30
2018-05-17T23:51:21.879Z,7.07
2018-05-17T23:53:50.107Z,7.00
2018-05-17T23:56:17.583Z,7.20
2018-05-17T23:58:45.068Z,7.60
